createdAt,value
2024-01-10T00:00:58.009Z,-1.80
2024-01-10T00:03:24.642Z,-2.07
2024-01-10T00:05:51.388Z,-1.69
2024-01-10T00:08:18.051Z,-1.17
2024-01-10T00:10:44.555Z,-0.77
2024-01-10T00:13:10.977Z,-0.57
2024-01-10T00:15:37.416Z,-0.60
2024-01-10T00:18:04.053Z,-1.27
2024-01-10T00:20:30.613Z,-0.88
2024-01-10T00:22:57.989Z,-0.26
2024-01-10T00:25:24.464Z,-1.19
2024-01-10T00:27:50.938Z,-1.52
2024-01-10T00:30:17.722Z,-1.32
2024-01-10T00:32:44.419Z,-0.98
2024-01-10T00:35:12.376Z,-1.19
2024-01-10T00:37:41.557Z,-0.57
2024-01-10T00:40:08.892Z,-0.90
2024-01-10T00:42:35.550Z,-1.65
2024-01-10T00:45:02.039Z,-1.14
2024-01-10T00:47:28.666Z,-2.06
2024-01-10T00:49:55.261Z,-2.26
2024-01-10T00:52:21.747Z,-2.13
2024-01-10T00:54:48.246Z,-1.05
2024-01-10T00:57:15.556Z,-1.00
2024-01-10T00:59:42.076Z,-1.17
2024-01-10T01:02:08.662Z,-1.17
2024-01-10T01:04:35.224Z,-0.94
2024-01-10T01:07:01.668Z,-0.51
2024-01-10T01:09:28.141Z,-0.61
2024-01-10T01:11:54.602Z,-0.57
2024-01-10T01:14:21.116Z,-0.39
2024-01-10T01:16:47.618Z,-1.37
2024-01-10T01:19:14.161Z,-1.92
2024-01-10T01:21:40.587Z,-1.75
2024-01-10T01:24:07.044Z,-2.12
2024-01-10T01:26:33.513Z,-1.88
2024-01-10T01:29:00.080Z,-1.88
2024-01-10T01:31:26.567Z,-1.56
2024-01-10T01:33:53.271Z,-1.96
2024-01-10T01:36:19.810Z,-1.51
2024-01-10T01:38:46.325Z,-2.01
2024-01-10T01:41:13.009Z,-0.74
2024-01-10T01:43:39.572Z,-0.55
2024-01-10T01:46:06.128Z,-0.49
2024-01-10T01:48:33.307Z,-0.90
2024-01-10T01:51:04.066Z,-1.19
2024-01-10T01:53:31.233Z,-1.39
2024-01-10T01:56:00.066Z,-0.14
2024-01-10T01:58:26.730Z,-0.21
2024-01-10T02:00:54.112Z,-0.21
2024-01-10T02:03:22.213Z,-0.45
2024-01-10T02:05:49.131Z,-0.37
2024-01-10T02:08:15.679Z,-0.40
2024-01-10T02:10:42.549Z,0.04
2024-01-10T02:13:09.746Z,-0.17
2024-01-10T02:15:37.116Z,-0.03
2024-01-10T02:18:03.900Z,-0.25
2024-01-10T02:20:30.540Z,-0.21
2024-01-10T02:22:57.035Z,-0.71
2024-01-10T02:25:23.754Z,-0.77
2024-01-10T02:27:50.214Z,-0.44
2024-01-10T02:30:16.727Z,-0.19
2024-01-10T02:32:43.348Z,-0.47
2024-01-10T02:35:09.882Z,-0.15
2024-01-10T02:37:36.552Z,-0.46
2024-01-10T02:40:03.451Z,-0.27
2024-01-10T02:42:31.283Z,-0.09
2024-01-10T02:44:57.901Z,-0.28
2024-01-10T02:47:24.467Z,-0.14
2024-01-10T02:49:51.067Z,0.16
2024-01-10T02:52:17.577Z,0.28
2024-01-10T02:54:44.085Z,-0.13
2024-01-10T02:57:10.533Z,-0.10
2024-01-10T02:59:36.984Z,-0.89
2024-01-10T03:02:03.719Z,-0.28
2024-01-10T03:04:30.250Z,0.09
2024-01-10T03:06:57.055Z,-0.29
2024-01-10T03:09:24.079Z,-0.22
2024-01-10T03:11:50.534Z,-0.34
2024-01-10T03:14:17.001Z,-0.19
2024-01-10T03:16:43.596Z,-0.19
2024-01-10T03:19:10.159Z,0.09
2024-01-10T03:21:36.620Z,0.00
2024-01-10T03:24:03.389Z,-0.36
2024-01-10T03:26:31.505Z,-0.61
2024-01-10T03:28:58.516Z,-0.59
2024-01-10T03:31:26.499Z,-0.08
2024-01-10T03:33:53.150Z,-0.09
2024-01-10T03:36:19.724Z,0.07
2024-01-10T03:38:46.555Z,0.01
2024-01-10T03:41:17.541Z,0.07
2024-01-10T03:43:45.210Z,-0.10
2024-01-10T03:46:12.522Z,-0.11
2024-01-10T03:48:43.640Z,-0.43
2024-01-10T03:51:10.030Z,0.00
2024-01-10T03:53:36.482Z,-0.35
2024-01-10T03:56:05.902Z,0.23
2024-01-10T03:58:32.378Z,0.12
2024-01-10T04:00:58.917Z,0.00
2024-01-10T04:03:25.524Z,-0.27
2024-01-10T04:05:52.072Z,-0.76
2024-01-10T04:08:19.290Z,0.02
2024-01-10T04:10:46.064Z,0.41
2024-01-10T04:13:12.527Z,0.00
2024-01-10T04:15:39.041Z,0.16
2024-01-10T04:18:05.765Z,0.22
2024-01-10T04:20:32.519Z,0.11
2024-01-10T04:22:59.236Z,-0.21
2024-01-10T04:25:25.714Z,-0.04
2024-01-10T04:27:52.253Z,0.10
2024-01-10T04:30:18.775Z,0.44
2024-01-10T04:32:45.314Z,0.16
2024-01-10T04:35:11.867Z,0.14
2024-01-10T04:37:38.463Z,0.12
2024-01-10T04:40:09.006Z,0.28
2024-01-10T04:42:36.201Z,-0.35
2024-01-10T04:45:02.777Z,0.45
2024-01-10T04:47:29.344Z,0.21
2024-01-10T04:49:55.887Z,0.04
2024-01-10T04:52:22.353Z,0.14
2024-01-10T04:54:48.884Z,0.25
2024-01-10T04:57:15.360Z,0.19
2024-01-10T04:59:41.800Z,-0.07
2024-01-10T05:02:08.772Z,-0.15
2024-01-10T05:04:35.272Z,-0.19
2024-01-10T05:07:01.709Z,-0.18
2024-01-10T05:09:28.183Z,-0.13
2024-01-10T05:11:55.686Z,-0.40
2024-01-10T05:14:22.636Z,-0.32
2024-01-10T05:16:49.389Z,-0.04
2024-01-10T05:19:15.958Z,-0.27
2024-01-10T05:21:42.817Z,-0.14
2024-01-10T05:24:09.361Z,-0.14
2024-01-10T05:26:36.537Z,-0.06
2024-01-10T05:29:03.050Z,0.06
2024-01-10T05:31:29.569Z,-0.21
2024-01-10T05:33:56.157Z,-0.28
2024-01-10T05:36:23.882Z,-0.06
2024-01-10T05:38:50.340Z,-0.30
2024-01-10T05:41:16.896Z,-0.43
2024-01-10T05:43:44.983Z,-0.01
2024-01-10T05:46:11.520Z,-0.18
2024-01-10T05:48:38.397Z,-0.38
2024-01-10T05:51:05.169Z,0.10
2024-01-10T05:53:31.690Z,0.03
2024-01-10T05:55:58.190Z,0.10
2024-01-10T05:58:24.630Z,-0.03
2024-01-10T06:00:51.086Z,-0.31
2024-01-10T06:03:17.778Z,-0.02
2024-01-10T06:05:44.480Z,-0.04
2024-01-10T06:08:11.106Z,0.14
2024-01-10T06:10:38.339Z,-1.02
2024-01-10T06:13:05.245Z,-0.25
2024-01-10T06:15:31.694Z,-0.06
2024-01-10T06:17:58.259Z,0.11
2024-01-10T06:20:24.986Z,-0.20
2024-01-10T06:22:51.492Z,-0.38
2024-01-10T06:25:18.042Z,-0.18
2024-01-10T06:27:44.479Z,-0.20
2024-01-10T06:30:11.441Z,-0.41
2024-01-10T06:32:38.065Z,-0.13
2024-01-10T06:35:05.887Z,0.04
2024-01-10T06:37:34.383Z,-0.09
2024-01-10T06:40:01.728Z,-0.06
2024-01-10T06:42:28.167Z,0.06
2024-01-10T06:44:55.028Z,-0.45
2024-01-10T06:47:22.478Z,-0.61
2024-01-10T06:49:49.360Z,-0.05
2024-01-10T06:52:15.904Z,-0.27
2024-01-10T06:54:42.317Z,-0.31
2024-01-10T06:57:08.791Z,-0.16
2024-01-10T06:59:35.227Z,-0.59
2024-01-10T07:02:02.954Z,-0.43
2024-01-10T07:04:29.546Z,-0.18
2024-01-10T07:06:55.979Z,-0.06
2024-01-10T07:09:22.478Z,-0.02
2024-01-10T07:11:49.592Z,0.12
2024-01-10T07:14:17.014Z,-0.15
2024-01-10T07:16:46.624Z,-0.14
2024-01-10T07:19:16.572Z,-0.13
2024-01-10T07:21:44.193Z,0.15
2024-01-10T07:24:11.151Z,0.35
2024-01-10T07:26:38.145Z,0.11
2024-01-10T07:29:05.098Z,0.09
2024-01-10T07:31:31.599Z,-0.18
2024-01-10T07:33:58.374Z,-1.12
2024-01-10T07:36:27.659Z,-1.54
2024-01-10T07:38:54.511Z,-2.12
2024-01-10T07:41:21.459Z,-1.76
2024-01-10T07:43:48.049Z,-1.22
2024-01-10T07:46:14.484Z,-1.80
2024-01-10T07:48:41.065Z,-2.24
2024-01-10T07:51:08.013Z,-1.68
2024-01-10T07:53:34.948Z,-1.83
2024-01-10T07:56:01.512Z,-2.00
2024-01-10T07:58:28.310Z,-2.34
2024-01-10T08:00:55.407Z,-2.59
2024-01-10T08:03:21.996Z,-1.91
2024-01-10T08:05:48.766Z,-2.45
2024-01-10T08:08:15.684Z,-1.76
2024-01-10T08:10:42.183Z,-1.47
2024-01-10T08:13:08.696Z,-1.56
2024-01-10T08:15:35.647Z,-1.01
2024-01-10T08:18:05.224Z,-1.78
2024-01-10T08:20:32.014Z,-2.44
2024-01-10T08:22:58.593Z,-1.29
2024-01-10T08:25:25.185Z,-2.34
2024-01-10T08:27:54.822Z,-2.27
2024-01-10T08:30:22.745Z,-1.75
2024-01-10T08:32:49.855Z,-2.10
2024-01-10T08:35:17.078Z,-1.75
2024-01-10T08:37:43.999Z,-1.45
2024-01-10T08:40:13.221Z,-0.61
2024-01-10T08:42:39.813Z,-0.45
2024-01-10T08:45:06.608Z,-0.56
2024-01-10T08:47:33.541Z,-0.16
2024-01-10T08:50:00.632Z,-0.65
2024-01-10T08:52:27.224Z,-0.98
2024-01-10T08:54:53.779Z,-0.25
2024-01-10T08:57:20.224Z,-0.53
2024-01-10T08:59:47.617Z,-1.25
2024-01-10T09:02:14.172Z,-0.18
2024-01-10T09:04:40.778Z,0.01
2024-01-10T09:07:08.430Z,0.33
2024-01-10T09:09:34.921Z,0.04
2024-01-10T09:12:01.419Z,0.15
2024-01-10T09:14:27.995Z,-0.32
2024-01-10T09:16:55.427Z,0.16
2024-01-10T09:19:22.075Z,-0.21
2024-01-10T09:21:49.697Z,0.57
2024-01-10T09:24:25.977Z,0.55
2024-01-10T09:26:55.910Z,-0.02
2024-01-10T09:29:22.763Z,0.72
2024-01-10T09:31:49.540Z,-0.06
2024-01-10T09:34:16.288Z,0.39
2024-01-10T09:36:43.110Z,0.22
2024-01-10T09:39:14.278Z,-0.33
2024-01-10T09:41:49.403Z,0.78
2024-01-10T09:44:18.829Z,0.54
2024-01-10T09:46:49.184Z,0.47
2024-01-10T09:49:27.899Z,0.41
2024-01-10T09:52:05.042Z,0.51
2024-01-10T09:54:32.335Z,0.98
2024-01-10T09:56:59.503Z,0.92
2024-01-10T09:59:26.158Z,1.23
2024-01-10T10:01:53.910Z,0.99
2024-01-10T10:04:21.605Z,0.11
2024-01-10T10:06:48.253Z,-0.25
2024-01-10T10:09:16.209Z,-0.91
2024-01-10T10:11:42.668Z,-0.09
2024-01-10T10:14:19.881Z,1.04
2024-01-10T10:16:46.600Z,1.28
2024-01-10T10:19:19.363Z,1.15
2024-01-10T10:21:51.384Z,0.30
2024-01-10T10:24:20.045Z,-0.56
2024-01-10T10:26:47.590Z,0.52
2024-01-10T10:29:19.045Z,1.24
2024-01-10T10:31:49.018Z,-0.02
2024-01-10T10:34:21.948Z,0.25
2024-01-10T10:36:48.844Z,0.57
2024-01-10T10:39:18.726Z,0.32
2024-01-10T10:41:48.428Z,0.17
2024-01-10T10:44:22.114Z,-0.08
2024-01-10T10:47:02.602Z,0.65
2024-01-10T10:49:35.714Z,-0.48
2024-01-10T10:52:03.251Z,0.06
2024-01-10T10:54:33.500Z,0.76
2024-01-10T10:57:03.056Z,0.67
2024-01-10T10:59:30.428Z,0.88
2024-01-10T11:01:57.092Z,1.31
2024-01-10T11:04:23.741Z,0.77
2024-01-10T11:06:50.605Z,0.97
2024-01-10T11:09:23.116Z,0.96
2024-01-10T11:11:52.469Z,1.58
2024-01-10T11:14:58.874Z,2.40
2024-01-10T11:17:58.434Z,2.54
2024-01-10T11:20:44.498Z,1.81
2024-01-10T11:23:35.613Z,2.32
2024-01-10T11:26:04.111Z,2.90
2024-01-10T11:28:34.422Z,2.62
2024-01-10T11:31:01.054Z,2.69
2024-01-10T11:33:35.649Z,2.52
2024-01-10T11:36:19.216Z,1.88
2024-01-10T11:38:58.775Z,2.50
2024-01-10T11:41:33.053Z,3.39
2024-01-10T11:44:12.015Z,1.85
2024-01-10T11:46:42.595Z,1.33
2024-01-10T11:49:14.653Z,0.39
2024-01-10T11:51:47.540Z,1.10
2024-01-10T11:54:44.411Z,0.50
2024-01-10T11:57:24.267Z,0.72
2024-01-10T11:59:55.609Z,0.48
2024-01-10T12:02:24.889Z,0.51
2024-01-10T12:04:52.032Z,0.93
2024-01-10T12:07:20.439Z,0.60
2024-01-10T12:09:47.999Z,0.17
2024-01-10T12:12:15.255Z,0.29
2024-01-10T12:14:44.481Z,-0.05
2024-01-10T12:17:11.315Z,0.25
2024-01-10T12:19:38.537Z,1.03
2024-01-10T12:22:08.081Z,1.46
2024-01-10T12:24:35.502Z,1.13
2024-01-10T12:27:02.635Z,0.73
2024-01-10T12:29:29.092Z,0.34
2024-01-10T12:31:55.778Z,0.55
2024-01-10T12:34:25.375Z,0.78
2024-01-10T12:36:55.984Z,1.63
2024-01-10T12:39:24.759Z,1.77
2024-01-10T12:41:51.681Z,2.23
2024-01-10T12:44:18.314Z,1.91
2024-01-10T12:46:53.712Z,2.28
2024-01-10T12:49:20.799Z,1.31
2024-01-10T12:51:48.515Z,0.46
2024-01-10T12:54:17.008Z,1.17
2024-01-10T12:56:43.517Z,0.83
2024-01-10T12:59:10.749Z,1.02
2024-01-10T13:01:37.401Z,2.26
2024-01-10T13:04:08.322Z,1.94
2024-01-10T13:06:35.552Z,1.02
2024-01-10T13:09:02.101Z,0.64
2024-01-10T13:11:28.945Z,0.71
2024-01-10T13:13:55.556Z,0.75
2024-01-10T13:16:22.092Z,0.36
2024-01-10T13:18:48.627Z,0.76
2024-01-10T13:21:15.182Z,1.38
2024-01-10T13:23:43.060Z,1.42
2024-01-10T13:26:09.574Z,1.04
2024-01-10T13:28:36.057Z,0.48
2024-01-10T13:31:04.127Z,0.40
2024-01-10T13:33:30.838Z,0.54
2024-01-10T13:35:57.408Z,0.68
2024-01-10T13:38:25.349Z,0.63
2024-01-10T13:40:52.302Z,0.09
2024-01-10T13:43:18.953Z,0.67
2024-01-10T13:45:45.633Z,1.37
2024-01-10T13:48:12.250Z,0.50
2024-01-10T13:50:39.053Z,0.98
2024-01-10T13:53:05.924Z,0.68
2024-01-10T13:55:33.105Z,1.26
2024-01-10T13:57:59.760Z,0.76
2024-01-10T14:00:26.739Z,0.80
2024-01-10T14:02:59.604Z,0.21
2024-01-10T14:05:28.135Z,0.42
2024-01-10T14:07:55.333Z,0.42
2024-01-10T14:10:21.805Z,0.62
2024-01-10T14:12:48.834Z,0.54
2024-01-10T14:15:15.358Z,1.12
2024-01-10T14:17:42.512Z,1.31
2024-01-10T14:20:10.189Z,0.68
2024-01-10T14:22:37.868Z,0.64
2024-01-10T14:25:06.640Z,0.59
2024-01-10T14:27:33.163Z,0.46
2024-01-10T14:30:00.635Z,0.38
2024-01-10T14:32:27.383Z,0.03
2024-01-10T14:34:54.272Z,0.20
2024-01-10T14:37:22.150Z,0.31
2024-01-10T14:39:48.762Z,0.10
2024-01-10T14:42:15.190Z,-0.08
2024-01-10T14:44:41.764Z,-0.24
2024-01-10T14:47:11.571Z,-0.10
2024-01-10T14:49:39.642Z,0.08
2024-01-10T14:52:06.836Z,0.26
2024-01-10T14:54:33.484Z,0.17
2024-01-10T14:57:00.064Z,0.12
2024-01-10T14:59:37.038Z,0.32
2024-01-10T15:02:11.167Z,-0.07
2024-01-10T15:04:41.427Z,0.46
2024-01-10T15:07:08.588Z,0.17
2024-01-10T15:09:37.613Z,0.50
2024-01-10T15:12:11.324Z,0.26
2024-01-10T15:14:41.501Z,0.00
2024-01-10T15:17:09.955Z,0.30
2024-01-10T15:19:37.687Z,0.08
2024-01-10T15:22:05.553Z,0.24
2024-01-10T15:24:32.062Z,0.30
2024-01-10T15:27:02.649Z,0.21
2024-01-10T15:29:30.193Z,0.68
2024-01-10T15:31:56.966Z,0.14
2024-01-10T15:34:25.880Z,-0.03
2024-01-10T15:36:52.830Z,-0.08
2024-01-10T15:39:21.219Z,-0.09
2024-01-10T15:41:51.063Z,-0.56
2024-01-10T15:44:22.153Z,0.04
2024-01-10T15:46:49.833Z,0.23
2024-01-10T15:49:17.060Z,0.62
2024-01-10T15:51:43.794Z,0.50
2024-01-10T15:54:10.409Z,0.22
2024-01-10T15:56:40.305Z,0.01
2024-01-10T15:59:07.906Z,0.33
2024-01-10T16:01:35.545Z,-0.05
2024-01-10T16:04:03.386Z,0.21
2024-01-10T16:06:31.720Z,0.20
2024-01-10T16:08:58.223Z,-0.25
2024-01-10T16:11:25.417Z,-0.44
2024-01-10T16:13:52.095Z,-0.61
2024-01-10T16:16:23.433Z,-0.88
2024-01-10T16:18:50.037Z,-0.36
2024-01-10T16:21:16.546Z,-0.49
2024-01-10T16:23:43.050Z,-0.07
2024-01-10T16:26:11.860Z,-0.20
2024-01-10T16:28:38.377Z,0.16
2024-01-10T16:31:05.001Z,0.75
2024-01-10T16:33:31.486Z,0.24
2024-01-10T16:35:57.934Z,0.88
2024-01-10T16:38:24.637Z,0.68
2024-01-10T16:40:51.238Z,0.91
2024-01-10T16:43:17.715Z,0.46
2024-01-10T16:45:44.170Z,-0.47
2024-01-10T16:48:10.910Z,-0.04
2024-01-10T16:50:37.507Z,-0.10
2024-01-10T16:53:04.840Z,0.75
2024-01-10T16:55:31.535Z,0.44
2024-01-10T16:57:58.443Z,0.00
2024-01-10T17:00:25.719Z,-0.04
2024-01-10T17:02:52.761Z,-0.07
2024-01-10T17:05:20.336Z,-0.45
2024-01-10T17:07:47.069Z,0.41
2024-01-10T17:10:13.697Z,0.55
2024-01-10T17:12:40.163Z,0.43
2024-01-10T17:15:07.235Z,0.30
2024-01-10T17:17:33.899Z,0.15
2024-01-10T17:20:00.621Z,-0.23
2024-01-10T17:22:29.093Z,0.17
2024-01-10T17:24:56.575Z,0.33
2024-01-10T17:27:23.054Z,-0.04
2024-01-10T17:29:49.520Z,-0.09
2024-01-10T17:32:16.762Z,0.33
2024-01-10T17:34:43.422Z,0.19
2024-01-10T17:37:09.927Z,-0.02
2024-01-10T17:39:36.357Z,0.24
2024-01-10T17:42:02.836Z,0.38
2024-01-10T17:44:29.356Z,0.51
2024-01-10T17:46:55.947Z,-0.34
2024-01-10T17:49:22.454Z,-0.82
2024-01-10T17:51:48.924Z,-0.02
2024-01-10T17:54:15.363Z,0.36
2024-01-10T17:56:41.803Z,0.09
2024-01-10T17:59:08.341Z,-0.04
2024-01-10T18:01:35.020Z,-0.18
2024-01-10T18:04:07.775Z,-0.15
2024-01-10T18:06:40.255Z,-0.30
2024-01-10T18:09:07.996Z,0.13
2024-01-10T18:11:34.759Z,-0.02
2024-01-10T18:14:01.507Z,0.40
2024-01-10T18:16:28.057Z,0.28
2024-01-10T18:18:54.695Z,0.54
2024-01-10T18:21:21.488Z,0.70
2024-01-10T18:23:47.980Z,-0.09
2024-01-10T18:26:14.630Z,-0.16
2024-01-10T18:28:42.198Z,0.36
2024-01-10T18:31:08.662Z,-0.87
2024-01-10T18:33:35.173Z,-0.53
2024-01-10T18:36:01.906Z,-0.70
2024-01-10T18:38:28.428Z,-0.60
2024-01-10T18:40:55.083Z,0.02
2024-01-10T18:43:21.602Z,0.43
2024-01-10T18:45:48.087Z,-0.08
2024-01-10T18:48:14.618Z,-0.01
2024-01-10T18:50:42.094Z,0.40
2024-01-10T18:53:08.798Z,0.40
2024-01-10T18:55:36.762Z,0.32
2024-01-10T18:58:04.936Z,0.02
2024-01-10T19:00:32.426Z,0.36
2024-01-10T19:03:01.622Z,0.35
2024-01-10T19:05:28.767Z,0.10
2024-01-10T19:07:55.678Z,-0.64
2024-01-10T19:10:22.606Z,0.11
2024-01-10T19:12:49.375Z,0.51
2024-01-10T19:15:16.203Z,0.13
2024-01-10T19:17:42.758Z,0.46
2024-01-10T19:20:09.757Z,0.60
2024-01-10T19:22:36.491Z,0.30
2024-01-10T19:25:03.367Z,0.38
2024-01-10T19:27:30.774Z,0.02
2024-01-10T19:29:57.471Z,0.39
2024-01-10T19:32:24.094Z,0.64
2024-01-10T19:34:50.754Z,-0.27
2024-01-10T19:37:20.078Z,0.25
2024-01-10T19:39:46.793Z,-0.01
2024-01-10T19:42:13.253Z,0.48
2024-01-10T19:44:39.826Z,-0.03
2024-01-10T19:47:09.598Z,-0.29
2024-01-10T19:49:36.581Z,-0.11
2024-01-10T19:52:03.417Z,-0.07
2024-01-10T19:54:30.495Z,0.12
2024-01-10T19:56:57.033Z,0.45
2024-01-10T19:59:23.522Z,0.25
2024-01-10T20:01:50.116Z,0.39
2024-01-10T20:04:16.606Z,-0.25
2024-01-10T20:06:43.165Z,0.00
2024-01-10T20:09:11.454Z,-0.13
2024-01-10T20:11:37.985Z,-0.43
2024-01-10T20:14:04.614Z,0.32
2024-01-10T20:16:31.151Z,0.14
2024-01-10T20:18:57.740Z,-0.30
2024-01-10T20:21:24.320Z,0.26
2024-01-10T20:23:50.899Z,0.08
2024-01-10T20:26:17.513Z,-0.40
2024-01-10T20:28:44.178Z,-0.49
2024-01-10T20:31:10.789Z,0.30
2024-01-10T20:33:37.605Z,0.51
2024-01-10T20:36:04.858Z,0.42
2024-01-10T20:38:31.401Z,0.62
2024-01-10T20:40:58.125Z,0.41
2024-01-10T20:43:27.726Z,0.40
2024-01-10T20:45:54.522Z,0.27
2024-01-10T20:48:21.077Z,0.15
2024-01-10T20:50:47.732Z,-0.16
2024-01-10T20:53:16.479Z,-0.45
2024-01-10T20:55:44.032Z,-0.22
2024-01-10T20:58:10.822Z,0.05
2024-01-10T21:00:38.598Z,0.14
2024-01-10T21:03:05.381Z,-0.13
2024-01-10T21:05:31.898Z,-0.15
2024-01-10T21:07:59.079Z,-0.15
2024-01-10T21:10:25.580Z,-0.21
2024-01-10T21:12:52.126Z,-0.19
2024-01-10T21:15:18.548Z,-0.72
2024-01-10T21:17:45.230Z,0.12
2024-01-10T21:20:12.166Z,-0.08
2024-01-10T21:22:39.370Z,-0.01
2024-01-10T21:25:07.660Z,-0.63
2024-01-10T21:27:34.205Z,-0.38
2024-01-10T21:30:00.715Z,-0.97
2024-01-10T21:32:27.464Z,-0.76
2024-01-10T21:34:54.445Z,-0.67
2024-01-10T21:37:21.105Z,-0.70
2024-01-10T21:39:47.753Z,-0.52
2024-01-10T21:42:14.278Z,-0.37
2024-01-10T21:44:40.744Z,-0.24
2024-01-10T21:47:07.714Z,-0.28
2024-01-10T21:49:34.622Z,-0.21
2024-01-10T21:52:01.245Z,-0.12
2024-01-10T21:54:27.848Z,-0.40
2024-01-10T21:56:54.289Z,-0.36
2024-01-10T21:59:20.768Z,-0.45
2024-01-10T22:01:47.335Z,-0.91
2024-01-10T22:04:14.092Z,-0.57
2024-01-10T22:06:40.679Z,-0.44
2024-01-10T22:09:09.640Z,-0.16
2024-01-10T22:11:36.693Z,-0.34
2024-01-10T22:14:03.294Z,0.05
2024-01-10T22:16:29.849Z,-0.10
2024-01-10T22:18:56.412Z,-0.83
2024-01-10T22:21:23.053Z,-0.12
2024-01-10T22:23:49.476Z,0.03
2024-01-10T22:26:16.007Z,-0.03
2024-01-10T22:28:42.490Z,-0.75
2024-01-10T22:31:09.015Z,-0.25
2024-01-10T22:33:35.543Z,-0.05
2024-01-10T22:36:02.020Z,-0.28
2024-01-10T22:38:28.563Z,0.00
2024-01-10T22:40:55.210Z,-0.21
2024-01-10T22:43:21.660Z,-0.67
2024-01-10T22:45:48.142Z,-0.61
2024-01-10T22:48:14.680Z,0.17
2024-01-10T22:50:41.230Z,-0.63
2024-01-10T22:53:07.742Z,0.03
2024-01-10T22:55:34.424Z,-0.18
2024-01-10T22:58:00.966Z,-0.06
2024-01-10T23:00:27.756Z,-0.35
2024-01-10T23:02:54.613Z,0.02
2024-01-10T23:05:24.291Z,0.27
2024-01-10T23:07:53.293Z,-0.57
2024-01-10T23:10:19.975Z,-0.89
2024-01-10T23:12:46.591Z,-0.10
2024-01-10T23:15:13.034Z,-0.25
2024-01-10T23:17:39.629Z,-0.36
2024-01-10T23:20:06.934Z,-0.06
2024-01-10T23:22:33.421Z,-0.44
2024-01-10T23:25:00.275Z,-0.67
2024-01-10T23:27:26.695Z,-0.88
2024-01-10T23:29:53.845Z,-0.38
2024-01-10T23:32:23.065Z,-0.41
2024-01-10T23:34:49.792Z,-1.28
2024-01-10T23:37:16.251Z,-0.88
2024-01-10T23:39:42.854Z,-0.48
2024-01-10T23:42:09.290Z,-1.13
2024-01-10T23:44:35.916Z,-1.23
2024-01-10T23:47:02.442Z,-1.45
2024-01-10T23:49:28.943Z,-1.56
2024-01-10T23:51:55.488Z,-1.48
2024-01-10T23:54:22.026Z,-1.53
2024-01-10T23:56:48.525Z,-1.34
2024-01-10T23:59:14.977Z,-1.53
